sensor_id;sensor_type;location;lat;lon;timestamp;temperature;humidity
45685;DHT22;46836;48.388;16.210;2024-01-27T00:00:29;7.10;99.90
45685;DHT22;46836;48.388;16.210;2024-01-27T00:02:56;7.00;99.90
45685;DHT22;46836;48.388;16.210;2024-01-27T00:05:23;7.00;99.90
45685;DHT22;46836;48.388;16.210;2024-01-27T00:07:54;7.00;99.90
45685;DHT22;46836;48.388;16.210;2024-01-27T00:10:21;7.00;99.90
45685;DHT22;46836;48.388;16.210;2024-01-27T00:12:48;7.00;99.90
45685;DHT22;46836;48.388;16.210;2024-01-27T00:15:15;7.00;99.90
45685;DHT22;46836;48.388;16.210;2024-01-27T00:17:43;7.00;99.90
45685;DHT22;46836;48.388;16.210;2024-01-27T00:20:10;7.00;99.90
45685;DHT22;46836;48.388;16.210;2024-01-27T00:22:38;7.00;99.90
45685;DHT22;46836;48.388;16.210;2024-01-27T00:25:05;7.00;99.90
45685;DHT22;46836;48.388;16.210;2024-01-27T00:27:32;7.00;99.90
45685;DHT22;46836;48.388;16.210;2024-01-27T00:29:59;6.90;99.90
45685;DHT22;46836;48.388;16.210;2024-01-27T00:32:27;6.90;99.90
45685;DHT22;46836;48.388;16.210;2024-01-27T00:34:54;6.80;99.90
45685;DHT22;46836;48.388;16.210;2024-01-27T00:37:21;6.80;99.90
45685;DHT22;46836;48.388;16.210;2024-01-27T00:39:48;6.80;99.90
45685;DHT22;46836;48.388;16.210;2024-01-27T00:42:15;6.80;99.90
45685;DHT22;46836;48.388;16.210;2024-01-27T00:44:43;6.80;99.90
45685;DHT22;46836;48.388;16.210;2024-01-27T00:47:10;6.80;99.90
45685;DHT22;46836;48.388;16.210;2024-01-27T00:49:37;6.80;99.90
45685;DHT22;46836;48.388;16.210;2024-01-27T00:52:05;6.80;99.90
45685;DHT22;46836;48.388;16.210;2024-01-27T00:54:32;6.80;99.90
45685;DHT22;46836;48.388;16.210;2024-01-27T00:56:59;6.80;99.90
45685;DHT22;46836;48.388;16.210;2024-01-27T00:59:26;6.80;99.90
45685;DHT22;46836;48.388;16.210;2024-01-27T01:01:53;6.70;99.90
45685;DHT22;46836;48.388;16.210;2024-01-27T01:04:20;6.70;99.90
45685;DHT22;46836;48.388;16.210;2024-01-27T01:06:47;6.70;99.90
45685;DHT22;46836;48.388;16.210;2024-01-27T01:09:14;6.80;99.90
45685;DHT22;46836;48.388;16.210;2024-01-27T01:11:41;6.80;99.90
45685;DHT22;46836;48.388;16.210;2024-01-27T01:14:09;6.80;99.90
45685;DHT22;46836;48.388;16.210;2024-01-27T01:16:36;6.90;99.90
45685;DHT22;46836;48.388;16.210;2024-01-27T01:19:03;6.90;99.90
45685;DHT22;46836;48.388;16.210;2024-01-27T01:21:30;7.00;99.90
45685;DHT22;46836;48.388;16.210;2024-01-27T01:23:57;7.00;99.90
45685;DHT22;46836;48.388;16.210;2024-01-27T01:26:25;7.00;99.90
45685;DHT22;46836;48.388;16.210;2024-01-27T01:28:52;7.00;99.90
45685;DHT22;46836;48.388;16.210;2024-01-27T01:31:19;7.00;99.90
45685;DHT22;46836;48.388;16.210;2024-01-27T01:33:46;6.90;99.90
45685;DHT22;46836;48.388;16.210;2024-01-27T01:36:13;6.90;99.90
45685;DHT22;46836;48.388;16.210;2024-01-27T01:38:40;6.90;99.90
45685;DHT22;46836;48.388;16.210;2024-01-27T01:41:07;6.90;99.90
45685;DHT22;46836;48.388;16.210;2024-01-27T01:43:34;6.90;99.90
45685;DHT22;46836;48.388;16.210;2024-01-27T01:46:02;6.80;99.90
45685;DHT22;46836;48.388;16.210;2024-01-27T01:48:30;6.80;99.90
45685;DHT22;46836;48.388;16.210;2024-01-27T01:50:58;6.80;99.90
45685;DHT22;46836;48.388;16.210;2024-01-27T01:53:26;6.70;99.90
45685;DHT22;46836;48.388;16.210;2024-01-27T01:55:55;6.70;99.90
45685;DHT22;46836;48.388;16.210;2024-01-27T01:58:22;6.60;99.90
45685;DHT22;46836;48.388;16.210;2024-01-27T02:00:49;6.60;99.90
45685;DHT22;46836;48.388;16.210;2024-01-27T02:03:17;6.50;99.90
45685;DHT22;46836;48.388;16.210;2024-01-27T02:05:44;6.50;99.90
45685;DHT22;46836;48.388;16.210;2024-01-27T02:08:11;6.50;99.90
45685;DHT22;46836;48.388;16.210;2024-01-27T02:10:38;6.50;99.90
45685;DHT22;46836;48.388;16.210;2024-01-27T02:13:22;6.50;99.90
45685;DHT22;46836;48.388;16.210;2024-01-27T02:15:50;6.40;99.90
45685;DHT22;46836;48.388;16.210;2024-01-27T02:18:17;6.40;99.90
45685;DHT22;46836;48.388;16.210;2024-01-27T02:20:45;6.40;99.90
45685;DHT22;46836;48.388;16.210;2024-01-27T02:23:13;6.40;99.90
45685;DHT22;46836;48.388;16.210;2024-01-27T02:25:40;6.40;99.90
45685;DHT22;46836;48.388;16.210;2024-01-27T02:28:07;6.40;99.90
45685;DHT22;46836;48.388;16.210;2024-01-27T02:30:34;6.30;99.90
45685;DHT22;46836;48.388;16.210;2024-01-27T02:33:01;6.30;99.90
45685;DHT22;46836;48.388;16.210;2024-01-27T02:35:29;6.20;99.90
45685;DHT22;46836;48.388;16.210;2024-01-27T02:37:56;6.20;99.90
45685;DHT22;46836;48.388;16.210;2024-01-27T02:40:23;6.20;99.90
45685;DHT22;46836;48.388;16.210;2024-01-27T02:42:50;6.10;99.90
45685;DHT22;46836;48.388;16.210;2024-01-27T02:45:17;6.10;99.90
45685;DHT22;46836;48.388;16.210;2024-01-27T02:47:45;6.10;99.90
45685;DHT22;46836;48.388;16.210;2024-01-27T02:50:12;6.10;99.90
45685;DHT22;46836;48.388;16.210;2024-01-27T02:52:39;6.20;99.90
45685;DHT22;46836;48.388;16.210;2024-01-27T02:55:06;6.20;99.90
45685;DHT22;46836;48.388;16.210;2024-01-27T02:57:34;6.20;99.90
45685;DHT22;46836;48.388;16.210;2024-01-27T03:00:01;6.10;99.90
45685;DHT22;46836;48.388;16.210;2024-01-27T03:02:28;6.10;99.90
45685;DHT22;46836;48.388;16.210;2024-01-27T03:04:55;6.10;99.90
45685;DHT22;46836;48.388;16.210;2024-01-27T03:07:22;6.00;99.90
45685;DHT22;46836;48.388;16.210;2024-01-27T03:09:49;6.00;99.90
45685;DHT22;46836;48.388;16.210;2024-01-27T03:12:16;6.10;99.90
45685;DHT22;46836;48.388;16.210;2024-01-27T03:14:45;6.10;99.90
45685;DHT22;46836;48.388;16.210;2024-01-27T03:17:13;6.00;99.90
45685;DHT22;46836;48.388;16.210;2024-01-27T03:19:40;6.00;99.90
45685;DHT22;46836;48.388;16.210;2024-01-27T03:22:07;6.00;99.90
45685;DHT22;46836;48.388;16.210;2024-01-27T03:24:34;6.00;99.90
45685;DHT22;46836;48.388;16.210;2024-01-27T03:27:01;6.00;99.90
45685;DHT22;46836;48.388;16.210;2024-01-27T03:29:28;6.00;99.90
45685;DHT22;46836;48.388;16.210;2024-01-27T03:31:55;6.10;99.90
45685;DHT22;46836;48.388;16.210;2024-01-27T03:34:22;6.10;99.90
45685;DHT22;46836;48.388;16.210;2024-01-27T03:36:52;6.20;99.90
45685;DHT22;46836;48.388;16.210;2024-01-27T03:39:19;6.20;99.90
45685;DHT22;46836;48.388;16.210;2024-01-27T03:41:46;6.20;99.90
45685;DHT22;46836;48.388;16.210;2024-01-27T03:44:13;6.20;99.90
45685;DHT22;46836;48.388;16.210;2024-01-27T03:46:40;6.30;99.90
45685;DHT22;46836;48.388;16.210;2024-01-27T03:49:07;6.30;99.90
45685;DHT22;46836;48.388;16.210;2024-01-27T03:51:35;6.40;99.90
45685;DHT22;46836;48.388;16.210;2024-01-27T03:54:02;6.40;99.90
45685;DHT22;46836;48.388;16.210;2024-01-27T03:56:29;6.40;99.90
45685;DHT22;46836;48.388;16.210;2024-01-27T03:58:56;6.30;99.90
45685;DHT22;46836;48.388;16.210;2024-01-27T04:01:23;6.30;99.90
45685;DHT22;46836;48.388;16.210;2024-01-27T04:03:51;6.30;99.90
45685;DHT22;46836;48.388;16.210;2024-01-27T04:06:18;6.30;99.90
45685;DHT22;46836;48.388;16.210;2024-01-27T04:08:45;6.30;99.90
45685;DHT22;46836;48.388;16.210;2024-01-27T04:11:20;6.30;99.90
45685;DHT22;46836;48.388;16.210;2024-01-27T04:13:49;6.30;99.90
45685;DHT22;46836;48.388;16.210;2024-01-27T04:16:17;6.20;99.90
45685;DHT22;46836;48.388;16.210;2024-01-27T04:18:44;6.10;99.90
45685;DHT22;46836;48.388;16.210;2024-01-27T04:21:11;6.10;99.90
45685;DHT22;46836;48.388;16.210;2024-01-27T04:23:38;6.00;99.90
45685;DHT22;46836;48.388;16.210;2024-01-27T04:26:05;6.00;99.90
45685;DHT22;46836;48.388;16.210;2024-01-27T04:28:33;6.00;99.90
45685;DHT22;46836;48.388;16.210;2024-01-27T04:31:00;6.00;99.90
45685;DHT22;46836;48.388;16.210;2024-01-27T04:33:27;6.00;99.90
45685;DHT22;46836;48.388;16.210;2024-01-27T04:35:55;5.90;99.90
45685;DHT22;46836;48.388;16.210;2024-01-27T04:38:22;6.00;99.90
45685;DHT22;46836;48.388;16.210;2024-01-27T04:40:50;5.90;99.90
45685;DHT22;46836;48.388;16.210;2024-01-27T04:43:18;5.90;99.90
45685;DHT22;46836;48.388;16.210;2024-01-27T04:45:45;5.80;99.90
45685;DHT22;46836;48.388;16.210;2024-01-27T04:48:12;5.80;99.90
45685;DHT22;46836;48.388;16.210;2024-01-27T04:50:40;5.70;99.90
45685;DHT22;46836;48.388;16.210;2024-01-27T04:53:07;5.70;99.90
45685;DHT22;46836;48.388;16.210;2024-01-27T04:55:34;5.60;99.90
45685;DHT22;46836;48.388;16.210;2024-01-27T04:58:01;5.50;99.90
45685;DHT22;46836;48.388;16.210;2024-01-27T05:00:28;5.40;99.90
45685;DHT22;46836;48.388;16.210;2024-01-27T05:02:55;5.40;99.90
45685;DHT22;46836;48.388;16.210;2024-01-27T05:05:22;5.40;99.90
45685;DHT22;46836;48.388;16.210;2024-01-27T05:07:49;5.30;99.90
45685;DHT22;46836;48.388;16.210;2024-01-27T05:10:17;5.30;99.90
45685;DHT22;46836;48.388;16.210;2024-01-27T05:12:44;5.30;99.90
45685;DHT22;46836;48.388;16.210;2024-01-27T05:15:11;5.30;99.90
45685;DHT22;46836;48.388;16.210;2024-01-27T05:17:38;5.20;99.90
45685;DHT22;46836;48.388;16.210;2024-01-27T05:20:07;5.20;99.90
45685;DHT22;46836;48.388;16.210;2024-01-27T05:22:34;5.10;99.90
45685;DHT22;46836;48.388;16.210;2024-01-27T05:25:02;5.00;99.90
45685;DHT22;46836;48.388;16.210;2024-01-27T05:27:31;5.00;99.90
45685;DHT22;46836;48.388;16.210;2024-01-27T05:29:58;4.90;99.90
45685;DHT22;46836;48.388;16.210;2024-01-27T05:32:25;4.80;99.90
45685;DHT22;46836;48.388;16.210;2024-01-27T05:34:52;4.80;99.90
45685;DHT22;46836;48.388;16.210;2024-01-27T05:37:19;4.70;99.90
45685;DHT22;46836;48.388;16.210;2024-01-27T05:39:46;4.70;99.90
45685;DHT22;46836;48.388;16.210;2024-01-27T05:42:13;4.70;99.90
45685;DHT22;46836;48.388;16.210;2024-01-27T05:44:40;4.70;99.90
45685;DHT22;46836;48.388;16.210;2024-01-27T05:47:08;4.60;99.90
45685;DHT22;46836;48.388;16.210;2024-01-27T05:49:38;4.60;99.90
45685;DHT22;46836;48.388;16.210;2024-01-27T05:52:05;4.50;99.90
45685;DHT22;46836;48.388;16.210;2024-01-27T05:54:32;4.40;99.90
45685;DHT22;46836;48.388;16.210;2024-01-27T05:57:00;4.30;99.90
45685;DHT22;46836;48.388;16.210;2024-01-27T05:59:27;4.20;99.90
45685;DHT22;46836;48.388;16.210;2024-01-27T06:01:54;4.20;99.90
45685;DHT22;46836;48.388;16.210;2024-01-27T06:04:21;4.20;99.90
45685;DHT22;46836;48.388;16.210;2024-01-27T06:06:48;4.20;99.90
45685;DHT22;46836;48.388;16.210;2024-01-27T06:09:16;4.20;99.90
45685;DHT22;46836;48.388;16.210;2024-01-27T06:11:43;4.20;99.90
45685;DHT22;46836;48.388;16.210;2024-01-27T06:14:10;4.20;99.90
45685;DHT22;46836;48.388;16.210;2024-01-27T06:16:37;4.20;99.90
45685;DHT22;46836;48.388;16.210;2024-01-27T06:19:04;4.20;99.90
45685;DHT22;46836;48.388;16.210;2024-01-27T06:21:31;4.10;99.90
45685;DHT22;46836;48.388;16.210;2024-01-27T06:23:58;4.10;99.90
45685;DHT22;46836;48.388;16.210;2024-01-27T06:26:26;4.20;99.90
45685;DHT22;46836;48.388;16.210;2024-01-27T06:28:53;4.20;99.90
45685;DHT22;46836;48.388;16.210;2024-01-27T06:31:20;4.30;99.90
45685;DHT22;46836;48.388;16.210;2024-01-27T06:33:47;4.40;99.90
45685;DHT22;46836;48.388;16.210;2024-01-27T06:36:15;4.50;99.90
45685;DHT22;46836;48.388;16.210;2024-01-27T06:38:42;4.50;99.90
45685;DHT22;46836;48.388;16.210;2024-01-27T06:41:10;4.50;99.90
45685;DHT22;46836;48.388;16.210;2024-01-27T06:43:37;4.70;99.90
45685;DHT22;46836;48.388;16.210;2024-01-27T06:46:04;4.70;99.90
45685;DHT22;46836;48.388;16.210;2024-01-27T06:48:32;4.70;99.90
45685;DHT22;46836;48.388;16.210;2024-01-27T06:50:59;4.70;99.90
45685;DHT22;46836;48.388;16.210;2024-01-27T06:53:26;4.70;99.90
45685;DHT22;46836;48.388;16.210;2024-01-27T06:55:53;4.70;99.90
45685;DHT22;46836;48.388;16.210;2024-01-27T06:58:20;4.70;99.90
45685;DHT22;46836;48.388;16.210;2024-01-27T07:00:48;4.70;99.90
45685;DHT22;46836;48.388;16.210;2024-01-27T07:03:15;4.80;99.90
45685;DHT22;46836;48.388;16.210;2024-01-27T07:05:42;4.80;99.90
45685;DHT22;46836;48.388;16.210;2024-01-27T07:08:09;4.80;99.90
45685;DHT22;46836;48.388;16.210;2024-01-27T07:10:36;4.80;99.90
45685;DHT22;46836;48.388;16.210;2024-01-27T07:13:04;4.80;99.90
45685;DHT22;46836;48.388;16.210;2024-01-27T07:15:33;4.90;99.90
45685;DHT22;46836;48.388;16.210;2024-01-27T07:18:00;4.90;99.90
45685;DHT22;46836;48.388;16.210;2024-01-27T07:20:27;4.90;99.90
45685;DHT22;46836;48.388;16.210;2024-01-27T07:22:55;4.90;99.90
45685;DHT22;46836;48.388;16.210;2024-01-27T07:25:22;5.00;99.90
45685;DHT22;46836;48.388;16.210;2024-01-27T07:27:49;5.00;99.90
45685;DHT22;46836;48.388;16.210;2024-01-27T07:30:17;5.00;99.90
45685;DHT22;46836;48.388;16.210;2024-01-27T07:32:44;5.00;99.90
45685;DHT22;46836;48.388;16.210;2024-01-27T07:35:11;5.10;99.90
45685;DHT22;46836;48.388;16.210;2024-01-27T07:37:38;5.10;99.90
45685;DHT22;46836;48.388;16.210;2024-01-27T07:40:08;5.20;99.90
45685;DHT22;46836;48.388;16.210;2024-01-27T07:42:36;5.30;99.90
45685;DHT22;46836;48.388;16.210;2024-01-27T07:45:03;5.30;99.90
45685;DHT22;46836;48.388;16.210;2024-01-27T07:47:31;5.30;99.90
45685;DHT22;46836;48.388;16.210;2024-01-27T07:49:58;5.30;99.90
45685;DHT22;46836;48.388;16.210;2024-01-27T07:52:25;5.30;99.90
45685;DHT22;46836;48.388;16.210;2024-01-27T07:54:52;5.30;99.90
45685;DHT22;46836;48.388;16.210;2024-01-27T07:57:21;5.30;99.90
45685;DHT22;46836;48.388;16.210;2024-01-27T07:59:48;5.40;99.90
45685;DHT22;46836;48.388;16.210;2024-01-27T08:02:15;5.40;99.90
45685;DHT22;46836;48.388;16.210;2024-01-27T08:04:44;5.40;99.90
45685;DHT22;46836;48.388;16.210;2024-01-27T08:07:11;5.40;99.90
45685;DHT22;46836;48.388;16.210;2024-01-27T08:09:41;5.50;99.90
45685;DHT22;46836;48.388;16.210;2024-01-27T08:12:08;5.50;99.90
45685;DHT22;46836;48.388;16.210;2024-01-27T08:14:36;5.60;99.90
45685;DHT22;46836;48.388;16.210;2024-01-27T08:17:03;5.60;99.90
45685;DHT22;46836;48.388;16.210;2024-01-27T08:19:30;5.70;99.90
45685;DHT22;46836;48.388;16.210;2024-01-27T08:21:57;5.70;99.90
45685;DHT22;46836;48.388;16.210;2024-01-27T08:24:25;5.80;99.90
45685;DHT22;46836;48.388;16.210;2024-01-27T08:26:53;5.80;99.90
45685;DHT22;46836;48.388;16.210;2024-01-27T08:29:20;5.90;99.90
45685;DHT22;46836;48.388;16.210;2024-01-27T08:31:47;5.90;99.90
45685;DHT22;46836;48.388;16.210;2024-01-27T08:34:14;6.00;99.90
45685;DHT22;46836;48.388;16.210;2024-01-27T08:36:42;6.10;99.90
45685;DHT22;46836;48.388;16.210;2024-01-27T08:39:09;6.10;99.90
45685;DHT22;46836;48.388;16.210;2024-01-27T08:41:39;6.10;99.90
45685;DHT22;46836;48.388;16.210;2024-01-27T08:44:06;6.20;99.90
45685;DHT22;46836;48.388;16.210;2024-01-27T08:46:33;6.40;99.90
45685;DHT22;46836;48.388;16.210;2024-01-27T08:49:00;6.50;99.90
45685;DHT22;46836;48.388;16.210;2024-01-27T08:51:27;6.60;99.90
45685;DHT22;46836;48.388;16.210;2024-01-27T08:53:54;6.70;99.90
45685;DHT22;46836;48.388;16.210;2024-01-27T08:56:21;6.80;99.90
45685;DHT22;46836;48.388;16.210;2024-01-27T08:58:48;6.80;99.90
45685;DHT22;46836;48.388;16.210;2024-01-27T09:01:16;6.90;99.90
45685;DHT22;46836;48.388;16.210;2024-01-27T09:03:43;7.00;99.90
45685;DHT22;46836;48.388;16.210;2024-01-27T09:06:11;7.00;99.90
45685;DHT22;46836;48.388;16.210;2024-01-27T09:08:38;7.00;99.90
45685;DHT22;46836;48.388;16.210;2024-01-27T09:11:05;7.10;99.90
45685;DHT22;46836;48.388;16.210;2024-01-27T09:13:33;7.20;99.90
45685;DHT22;46836;48.388;16.210;2024-01-27T09:16:00;7.20;99.90
45685;DHT22;46836;48.388;16.210;2024-01-27T09:18:27;7.30;99.90
45685;DHT22;46836;48.388;16.210;2024-01-27T09:20:55;7.30;99.90
45685;DHT22;46836;48.388;16.210;2024-01-27T09:23:22;7.40;99.90
45685;DHT22;46836;48.388;16.210;2024-01-27T09:25:49;7.40;99.90
45685;DHT22;46836;48.388;16.210;2024-01-27T09:28:16;7.50;99.90
45685;DHT22;46836;48.388;16.210;2024-01-27T09:30:44;7.60;99.90
45685;DHT22;46836;48.388;16.210;2024-01-27T09:33:11;7.70;99.90
45685;DHT22;46836;48.388;16.210;2024-01-27T09:35:39;7.70;99.90
45685;DHT22;46836;48.388;16.210;2024-01-27T09:38:06;7.70;99.90
45685;DHT22;46836;48.388;16.210;2024-01-27T09:40:39;7.70;99.90
45685;DHT22;46836;48.388;16.210;2024-01-27T09:43:12;7.60;99.90
45685;DHT22;46836;48.388;16.210;2024-01-27T09:45:40;7.60;99.90
45685;DHT22;46836;48.388;16.210;2024-01-27T09:48:08;7.60;99.90
45685;DHT22;46836;48.388;16.210;2024-01-27T09:50:39;7.60;99.90
45685;DHT22;46836;48.388;16.210;2024-01-27T09:53:07;7.50;99.90
45685;DHT22;46836;48.388;16.210;2024-01-27T09:55:35;7.50;99.90
45685;DHT22;46836;48.388;16.210;2024-01-27T09:58:04;7.60;99.90
45685;DHT22;46836;48.388;16.210;2024-01-27T10:00:32;7.50;99.90
45685;DHT22;46836;48.388;16.210;2024-01-27T10:03:01;7.50;99.90
45685;DHT22;46836;48.388;16.210;2024-01-27T10:05:31;7.60;99.90
45685;DHT22;46836;48.388;16.210;2024-01-27T10:07:58;7.50;99.90
45685;DHT22;46836;48.388;16.210;2024-01-27T10:10:25;7.50;99.90
45685;DHT22;46836;48.388;16.210;2024-01-27T10:12:53;7.40;99.90
45685;DHT22;46836;48.388;16.210;2024-01-27T10:15:22;7.30;99.90
45685;DHT22;46836;48.388;16.210;2024-01-27T10:17:50;7.30;99.90
45685;DHT22;46836;48.388;16.210;2024-01-27T10:20:17;7.30;99.90
45685;DHT22;46836;48.388;16.210;2024-01-27T10:22:46;7.40;99.90
45685;DHT22;46836;48.388;16.210;2024-01-27T10:25:13;7.60;99.90
45685;DHT22;46836;48.388;16.210;2024-01-27T10:27:42;7.60;99.90
45685;DHT22;46836;48.388;16.210;2024-01-27T10:30:16;7.70;99.90
45685;DHT22;46836;48.388;16.210;2024-01-27T10:32:54;7.90;99.90
45685;DHT22;46836;48.388;16.210;2024-01-27T10:35:23;8.00;99.90
45685;DHT22;46836;48.388;16.210;2024-01-27T10:37:53;7.90;99.90
45685;DHT22;46836;48.388;16.210;2024-01-27T10:40:25;8.00;99.90
45685;DHT22;46836;48.388;16.210;2024-01-27T10:43:07;8.10;99.90
45685;DHT22;46836;48.388;16.210;2024-01-27T10:45:39;8.10;99.90
45685;DHT22;46836;48.388;16.210;2024-01-27T10:48:08;8.00;99.90
45685;DHT22;46836;48.388;16.210;2024-01-27T10:50:39;7.80;99.90
45685;DHT22;46836;48.388;16.210;2024-01-27T10:53:31;8.00;99.90
45685;DHT22;46836;48.388;16.210;2024-01-27T10:56:03;7.60;99.90
45685;DHT22;46836;48.388;16.210;2024-01-27T10:58:35;7.80;99.90
45685;DHT22;46836;48.388;16.210;2024-01-27T11:01:10;7.80;99.90
45685;DHT22;46836;48.388;16.210;2024-01-27T11:03:39;7.80;99.90
45685;DHT22;46836;48.388;16.210;2024-01-27T11:06:07;7.80;99.90
45685;DHT22;46836;48.388;16.210;2024-01-27T11:08:35;7.90;99.90
45685;DHT22;46836;48.388;16.210;2024-01-27T11:11:05;7.90;99.90
45685;DHT22;46836;48.388;16.210;2024-01-27T11:13:33;7.90;99.90
45685;DHT22;46836;48.388;16.210;2024-01-27T11:16:01;8.00;99.90
45685;DHT22;46836;48.388;16.210;2024-01-27T11:18:29;8.00;99.90
45685;DHT22;46836;48.388;16.210;2024-01-27T11:20:58;8.00;99.90
45685;DHT22;46836;48.388;16.210;2024-01-27T11:23:32;8.20;99.90
45685;DHT22;46836;48.388;16.210;2024-01-27T11:26:05;8.30;99.90
45685;DHT22;46836;48.388;16.210;2024-01-27T11:28:32;8.10;99.90
45685;DHT22;46836;48.388;16.210;2024-01-27T11:31:04;8.10;99.90
45685;DHT22;46836;48.388;16.210;2024-01-27T11:33:31;8.20;99.90
45685;DHT22;46836;48.388;16.210;2024-01-27T11:36:05;8.10;99.90
45685;DHT22;46836;48.388;16.210;2024-01-27T11:38:32;8.20;99.90
45685;DHT22;46836;48.388;16.210;2024-01-27T11:41:00;8.30;99.90
45685;DHT22;46836;48.388;16.210;2024-01-27T11:43:28;8.30;99.90
45685;DHT22;46836;48.388;16.210;2024-01-27T11:45:59;8.30;99.90
45685;DHT22;46836;48.388;16.210;2024-01-27T11:48:27;8.30;99.90
45685;DHT22;46836;48.388;16.210;2024-01-27T11:51:09;8.40;99.90
45685;DHT22;46836;48.388;16.210;2024-01-27T11:53:37;8.50;99.90
45685;DHT22;46836;48.388;16.210;2024-01-27T11:56:05;8.60;99.90
45685;DHT22;46836;48.388;16.210;2024-01-27T11:58:33;8.60;99.90
45685;DHT22;46836;48.388;16.210;2024-01-27T12:01:00;8.60;99.90
45685;DHT22;46836;48.388;16.210;2024-01-27T12:03:28;8.50;99.90
45685;DHT22;46836;48.388;16.210;2024-01-27T12:05:55;8.60;99.90
45685;DHT22;46836;48.388;16.210;2024-01-27T12:08:23;8.60;99.90
45685;DHT22;46836;48.388;16.210;2024-01-27T12:10:51;8.70;99.90
45685;DHT22;46836;48.388;16.210;2024-01-27T12:13:18;8.80;99.90
45685;DHT22;46836;48.388;16.210;2024-01-27T12:15:45;8.80;99.90
45685;DHT22;46836;48.388;16.210;2024-01-27T12:18:13;8.80;99.90
45685;DHT22;46836;48.388;16.210;2024-01-27T12:20:40;8.80;99.90
45685;DHT22;46836;48.388;16.210;2024-01-27T12:23:07;8.80;99.90
45685;DHT22;46836;48.388;16.210;2024-01-27T12:25:35;8.90;99.90
45685;DHT22;46836;48.388;16.210;2024-01-27T12:28:08;8.80;99.90
45685;DHT22;46836;48.388;16.210;2024-01-27T12:30:36;8.80;99.90
45685;DHT22;46836;48.388;16.210;2024-01-27T12:33:09;8.80;99.90
45685;DHT22;46836;48.388;16.210;2024-01-27T12:35:39;8.70;99.90
45685;DHT22;46836;48.388;16.210;2024-01-27T12:38:06;8.80;99.90
45685;DHT22;46836;48.388;16.210;2024-01-27T12:40:33;8.90;99.90
45685;DHT22;46836;48.388;16.210;2024-01-27T12:43:00;8.90;99.90
45685;DHT22;46836;48.388;16.210;2024-01-27T12:45:27;8.90;99.90
45685;DHT22;46836;48.388;16.210;2024-01-27T12:47:57;8.90;99.90
45685;DHT22;46836;48.388;16.210;2024-01-27T12:50:24;8.90;99.90
45685;DHT22;46836;48.388;16.210;2024-01-27T12:52:51;8.90;99.90
45685;DHT22;46836;48.388;16.210;2024-01-27T12:55:18;8.90;99.90
45685;DHT22;46836;48.388;16.210;2024-01-27T12:57:47;8.80;99.90
45685;DHT22;46836;48.388;16.210;2024-01-27T13:00:14;8.80;99.90
45685;DHT22;46836;48.388;16.210;2024-01-27T13:02:42;8.90;99.90
45685;DHT22;46836;48.388;16.210;2024-01-27T13:05:10;8.90;99.90
45685;DHT22;46836;48.388;16.210;2024-01-27T13:07:37;8.90;99.90
45685;DHT22;46836;48.388;16.210;2024-01-27T13:10:04;8.90;99.90
45685;DHT22;46836;48.388;16.210;2024-01-27T13:12:31;8.90;99.90
45685;DHT22;46836;48.388;16.210;2024-01-27T13:14:58;8.90;99.90
45685;DHT22;46836;48.388;16.210;2024-01-27T13:17:25;8.90;99.90
45685;DHT22;46836;48.388;16.210;2024-01-27T13:19:52;8.90;99.90
45685;DHT22;46836;48.388;16.210;2024-01-27T13:22:20;8.90;99.90
45685;DHT22;46836;48.388;16.210;2024-01-27T13:24:51;8.90;99.90
45685;DHT22;46836;48.388;16.210;2024-01-27T13:27:18;8.90;99.90
45685;DHT22;46836;48.388;16.210;2024-01-27T13:29:45;8.90;99.90
45685;DHT22;46836;48.388;16.210;2024-01-27T13:32:12;8.90;99.90
45685;DHT22;46836;48.388;16.210;2024-01-27T13:34:39;9.00;99.90
45685;DHT22;46836;48.388;16.210;2024-01-27T13:37:07;8.90;99.90
45685;DHT22;46836;48.388;16.210;2024-01-27T13:39:35;8.90;99.90
45685;DHT22;46836;48.388;16.210;2024-01-27T13:42:03;8.80;99.90
45685;DHT22;46836;48.388;16.210;2024-01-27T13:44:31;8.80;99.90
45685;DHT22;46836;48.388;16.210;2024-01-27T13:47:05;8.70;99.90
45685;DHT22;46836;48.388;16.210;2024-01-27T13:49:32;8.70;99.90
45685;DHT22;46836;48.388;16.210;2024-01-27T13:52:00;8.70;99.90
45685;DHT22;46836;48.388;16.210;2024-01-27T13:54:31;8.60;99.90
45685;DHT22;46836;48.388;16.210;2024-01-27T13:57:02;8.60;99.90
45685;DHT22;46836;48.388;16.210;2024-01-27T13:59:30;8.70;99.90
45685;DHT22;46836;48.388;16.210;2024-01-27T14:01:57;8.60;99.90
45685;DHT22;46836;48.388;16.210;2024-01-27T14:04:24;8.60;99.90
45685;DHT22;46836;48.388;16.210;2024-01-27T14:06:55;8.60;99.90
45685;DHT22;46836;48.388;16.210;2024-01-27T14:09:23;8.60;99.90
45685;DHT22;46836;48.388;16.210;2024-01-27T14:11:50;8.60;99.90
45685;DHT22;46836;48.388;16.210;2024-01-27T14:14:17;8.60;99.90
45685;DHT22;46836;48.388;16.210;2024-01-27T14:16:44;8.50;99.90
45685;DHT22;46836;48.388;16.210;2024-01-27T14:19:12;8.50;99.90
45685;DHT22;46836;48.388;16.210;2024-01-27T14:21:39;8.50;99.90
45685;DHT22;46836;48.388;16.210;2024-01-27T14:24:09;8.50;99.90
45685;DHT22;46836;48.388;16.210;2024-01-27T14:26:36;8.40;99.90
45685;DHT22;46836;48.388;16.210;2024-01-27T14:29:04;8.40;99.90
45685;DHT22;46836;48.388;16.210;2024-01-27T14:31:31;8.40;99.90
45685;DHT22;46836;48.388;16.210;2024-01-27T14:33:58;8.40;99.90
45685;DHT22;46836;48.388;16.210;2024-01-27T14:36:26;8.30;99.90
45685;DHT22;46836;48.388;16.210;2024-01-27T14:38:53;8.20;99.90
45685;DHT22;46836;48.388;16.210;2024-01-27T14:41:20;8.20;99.90
45685;DHT22;46836;48.388;16.210;2024-01-27T14:43:47;8.20;99.90
45685;DHT22;46836;48.388;16.210;2024-01-27T14:46:17;8.10;99.90
45685;DHT22;46836;48.388;16.210;2024-01-27T14:48:45;8.10;99.90
45685;DHT22;46836;48.388;16.210;2024-01-27T14:51:13;8.00;99.90
45685;DHT22;46836;48.388;16.210;2024-01-27T14:53:40;8.00;99.90
45685;DHT22;46836;48.388;16.210;2024-01-27T14:56:07;7.90;99.90
45685;DHT22;46836;48.388;16.210;2024-01-27T14:58:34;8.00;99.90
45685;DHT22;46836;48.388;16.210;2024-01-27T15:01:02;8.00;99.90
45685;DHT22;46836;48.388;16.210;2024-01-27T15:03:29;7.90;99.90
45685;DHT22;46836;48.388;16.210;2024-01-27T15:05:56;7.90;99.90
45685;DHT22;46836;48.388;16.210;2024-01-27T15:08:26;7.90;99.90
45685;DHT22;46836;48.388;16.210;2024-01-27T15:10:54;7.80;99.90
45685;DHT22;46836;48.388;16.210;2024-01-27T15:13:21;7.80;99.90
45685;DHT22;46836;48.388;16.210;2024-01-27T15:15:51;7.70;99.90
45685;DHT22;46836;48.388;16.210;2024-01-27T15:18:18;7.70;99.90
45685;DHT22;46836;48.388;16.210;2024-01-27T15:20:45;7.60;99.90
45685;DHT22;46836;48.388;16.210;2024-01-27T15:23:12;7.50;99.90
45685;DHT22;46836;48.388;16.210;2024-01-27T15:25:40;7.50;99.90
45685;DHT22;46836;48.388;16.210;2024-01-27T15:28:08;7.40;99.90
45685;DHT22;46836;48.388;16.210;2024-01-27T15:30:35;7.40;99.90
45685;DHT22;46836;48.388;16.210;2024-01-27T15:33:02;7.30;99.90